createdAt,value
2022-09-03T00:01:08.769Z,18.71
2022-09-03T00:03:36.523Z,18.70
2022-09-03T00:06:05.507Z,18.70
2022-09-03T00:08:33.656Z,18.69
2022-09-03T00:11:02.385Z,18.66
2022-09-03T00:13:30.052Z,18.64
2022-09-03T00:15:58.005Z,18.62
2022-09-03T00:18:25.836Z,18.60
2022-09-03T00:20:53.477Z,18.60
2022-09-03T00:23:21.186Z,18.57
2022-09-03T00:25:49.147Z,18.54
2022-09-03T00:28:16.932Z,18.52
2022-09-03T00:30:44.531Z,18.48
2022-09-03T00:33:13.335Z,18.45
2022-09-03T00:35:41.404Z,18.44
2022-09-03T00:38:09.003Z,18.43
2022-09-03T00:40:36.747Z,18.40
2022-09-03T00:43:04.495Z,18.39
2022-09-03T00:45:32.752Z,18.39
2022-09-03T00:48:00.461Z,18.38
2022-09-03T00:50:29.575Z,18.37
2022-09-03T00:52:57.474Z,18.33
2022-09-03T00:55:25.458Z,18.30
2022-09-03T00:57:53.151Z,18.29
2022-09-03T01:00:20.906Z,18.27
2022-09-03T01:02:48.840Z,18.27
2022-09-03T01:05:16.875Z,18.22
2022-09-03T01:07:46.423Z,18.17
2022-09-03T01:10:14.192Z,18.13
2022-09-03T01:12:41.899Z,18.11
2022-09-03T01:15:10.390Z,18.09
2022-09-03T01:17:38.421Z,18.06
2022-09-03T01:20:06.204Z,18.03
2022-09-03T01:22:33.811Z,18.01
2022-09-03T01:25:02.288Z,17.98
2022-09-03T01:27:30.068Z,17.97
2022-09-03T01:29:58.601Z,17.93
2022-09-03T01:32:28.060Z,17.89
2022-09-03T01:34:56.087Z,17.83
2022-09-03T01:37:23.801Z,17.78
2022-09-03T01:39:51.524Z,17.77
2022-09-03T01:42:20.899Z,17.71
2022-09-03T01:44:52.881Z,17.64
2022-09-03T01:47:20.807Z,17.59
2022-09-03T01:49:48.458Z,17.54
2022-09-03T01:52:16.199Z,17.46
2022-09-03T01:54:44.132Z,17.35
2022-09-03T01:57:12.665Z,17.26
2022-09-03T01:59:59.574Z,17.13
2022-09-03T02:02:27.331Z,17.02
2022-09-03T02:04:55.226Z,16.91
2022-09-03T02:07:22.879Z,16.80
2022-09-03T02:09:50.502Z,16.71
2022-09-03T02:12:18.834Z,16.63
2022-09-03T02:14:46.845Z,16.55
2022-09-03T02:17:14.865Z,16.47
2022-09-03T02:19:42.689Z,16.42
2022-09-03T02:22:10.422Z,16.37
2022-09-03T02:24:39.022Z,16.34
2022-09-03T02:27:06.687Z,16.32
2022-09-03T02:29:34.374Z,16.27
2022-09-03T02:32:02.079Z,16.21
2022-09-03T02:34:29.814Z,16.23
2022-09-03T02:36:57.748Z,16.26
2022-09-03T02:39:25.608Z,16.28
2022-09-03T02:41:53.282Z,16.26
2022-09-03T02:44:24.162Z,16.19
2022-09-03T02:46:53.223Z,16.12
2022-09-03T02:49:20.886Z,16.04
2022-09-03T02:51:48.513Z,15.98
2022-09-03T02:54:20.714Z,15.91
2022-09-03T02:56:50.014Z,15.84
2022-09-03T02:59:18.125Z,15.79
2022-09-03T03:01:46.469Z,15.72
2022-09-03T03:04:14.491Z,15.68
2022-09-03T03:06:42.527Z,15.61
2022-09-03T03:09:15.375Z,15.55
2022-09-03T03:11:43.154Z,15.49
2022-09-03T03:14:10.906Z,15.44
2022-09-03T03:16:38.706Z,15.39
2022-09-03T03:19:06.655Z,15.33
2022-09-03T03:21:34.268Z,15.28
2022-09-03T03:24:02.023Z,15.23
2022-09-03T03:26:29.748Z,15.21
2022-09-03T03:28:58.229Z,15.18
2022-09-03T03:31:25.974Z,15.16
2022-09-03T03:33:54.170Z,15.14
2022-09-03T03:36:22.113Z,15.11
2022-09-03T03:38:49.805Z,15.08
2022-09-03T03:41:17.556Z,15.07
2022-09-03T03:43:45.198Z,15.06
2022-09-03T03:46:13.867Z,15.06
2022-09-03T03:48:41.567Z,15.08
2022-09-03T03:51:10.065Z,15.09
2022-09-03T03:53:37.748Z,15.09
2022-09-03T03:56:05.732Z,15.08
2022-09-03T03:58:33.539Z,15.09
2022-09-03T04:01:01.435Z,15.07
2022-09-03T04:03:29.455Z,15.06
2022-09-03T04:05:57.632Z,15.05
2022-09-03T04:08:25.368Z,15.03
2022-09-03T04:10:53.160Z,15.03
2022-09-03T04:13:21.010Z,15.02
2022-09-03T04:15:49.017Z,15.02
2022-09-03T04:18:16.681Z,15.00
2022-09-03T04:20:44.734Z,14.99
2022-09-03T04:23:12.927Z,14.94
2022-09-03T04:25:42.063Z,14.94
2022-09-03T04:28:09.655Z,14.92
2022-09-03T04:30:37.342Z,14.90
2022-09-03T04:33:04.961Z,14.90
2022-09-03T04:35:33.821Z,14.88
2022-09-03T04:38:04.448Z,14.87
2022-09-03T04:40:32.052Z,14.85
2022-09-03T04:43:00.526Z,14.86
2022-09-03T04:45:28.954Z,14.92
2022-09-03T04:47:57.290Z,15.01
2022-09-03T04:50:25.537Z,15.10
2022-09-03T04:52:53.194Z,15.18
2022-09-03T04:55:21.161Z,15.23
2022-09-03T04:57:48.903Z,15.33
2022-09-03T05:00:18.893Z,15.43
2022-09-03T05:02:48.827Z,15.53
2022-09-03T05:05:21.126Z,15.63
2022-09-03T05:07:48.860Z,15.71
2022-09-03T05:10:20.533Z,15.79
2022-09-03T05:12:48.509Z,15.86
2022-09-03T05:15:16.243Z,15.92
2022-09-03T05:17:43.915Z,16.00
2022-09-03T05:20:11.726Z,16.07
2022-09-03T05:22:39.528Z,16.15
2022-09-03T05:25:07.163Z,16.22
2022-09-03T05:27:34.828Z,16.31
2022-09-03T05:30:02.469Z,16.35
2022-09-03T05:32:31.186Z,16.39
2022-09-03T05:34:59.152Z,16.48
2022-09-03T05:37:26.957Z,16.60
2022-09-03T05:39:54.774Z,16.70
2022-09-03T05:42:23.353Z,16.81
2022-09-03T05:44:51.509Z,16.91
2022-09-03T05:47:19.238Z,16.99
2022-09-03T05:49:46.902Z,17.09
2022-09-03T05:52:14.591Z,17.21
2022-09-03T05:54:42.658Z,17.33
2022-09-03T05:57:10.545Z,17.46
2022-09-03T05:59:38.202Z,17.56
2022-09-03T06:02:05.890Z,17.66
2022-09-03T06:04:33.997Z,17.77
2022-09-03T06:07:02.151Z,17.85
2022-09-03T06:09:29.901Z,17.95
2022-09-03T06:11:57.630Z,18.04
2022-09-03T06:14:27.376Z,18.15
2022-09-03T06:16:57.170Z,18.24
2022-09-03T06:19:24.831Z,18.34
2022-09-03T06:21:52.487Z,18.41
2022-09-03T06:24:20.324Z,18.50
2022-09-03T06:26:48.932Z,18.60
2022-09-03T06:29:16.842Z,18.71
2022-09-03T06:31:44.915Z,18.84
2022-09-03T06:34:12.725Z,19.30
2022-09-03T06:36:42.547Z,19.57
2022-09-03T06:39:10.155Z,19.66
2022-09-03T06:41:38.174Z,19.69
2022-09-03T06:44:05.861Z,19.75
2022-09-03T06:46:35.213Z,19.81
2022-09-03T06:49:02.910Z,19.90
2022-09-03T06:51:30.565Z,19.99
2022-09-03T06:53:58.558Z,20.07
2022-09-03T06:56:27.319Z,20.16
2022-09-03T06:58:55.458Z,20.25
2022-09-03T07:01:23.335Z,20.34
2022-09-03T07:03:51.177Z,20.48
2022-09-03T07:06:19.656Z,20.60
2022-09-03T07:08:47.486Z,20.72
2022-09-03T07:11:15.157Z,20.87
2022-09-03T07:13:43.403Z,21.01
2022-09-03T07:16:11.181Z,21.13
2022-09-03T07:18:39.374Z,21.24
2022-09-03T07:21:07.138Z,21.36
2022-09-03T07:23:34.756Z,21.45
2022-09-03T07:26:02.448Z,21.55
2022-09-03T07:28:30.068Z,21.64
2022-09-03T07:30:57.781Z,21.75
2022-09-03T07:33:25.409Z,21.85
2022-09-03T07:35:53.420Z,21.94
2022-09-03T07:38:21.155Z,22.05
2022-09-03T07:40:48.899Z,22.17
2022-09-03T07:43:16.905Z,22.23
2022-09-03T07:45:46.699Z,22.25
2022-09-03T07:48:14.456Z,22.24
2022-09-03T07:50:42.259Z,22.28
2022-09-03T07:53:09.870Z,22.31
2022-09-03T07:55:37.606Z,22.36
2022-09-03T07:58:05.218Z,22.43
2022-09-03T08:00:34.254Z,22.47
2022-09-03T08:03:06.387Z,22.53
2022-09-03T08:05:34.308Z,22.60
2022-09-03T08:08:02.079Z,22.70
2022-09-03T08:10:32.798Z,22.81
2022-09-03T08:13:00.556Z,22.87
2022-09-03T08:15:28.566Z,22.90
2022-09-03T08:17:59.637Z,22.90
2022-09-03T08:20:31.698Z,22.86
2022-09-03T08:22:59.309Z,22.79
2022-09-03T08:25:27.308Z,22.74
2022-09-03T08:27:55.445Z,22.75
2022-09-03T08:30:25.191Z,22.76
2022-09-03T08:32:52.946Z,22.79
2022-09-03T08:35:21.780Z,22.84
2022-09-03T08:37:54.842Z,22.91
2022-09-03T08:40:24.518Z,23.01
2022-09-03T08:42:52.319Z,23.11
2022-09-03T08:45:19.994Z,23.22
2022-09-03T08:47:47.696Z,23.32
2022-09-03T08:50:15.919Z,23.41
2022-09-03T08:52:49.204Z,23.48
2022-09-03T08:55:17.074Z,23.51
2022-09-03T08:57:44.696Z,23.57
2022-09-03T09:00:12.395Z,23.65
2022-09-03T09:02:40.249Z,23.67
2022-09-03T09:05:12.260Z,23.66
2022-09-03T09:07:41.967Z,23.78
2022-09-03T09:10:09.644Z,23.96
2022-09-03T09:12:42.792Z,24.20
2022-09-03T09:15:14.936Z,24.52
2022-09-03T09:17:42.589Z,24.82
2022-09-03T09:20:10.590Z,25.01
2022-09-03T09:22:38.510Z,25.16
2022-09-03T09:25:06.384Z,25.25
2022-09-03T09:27:34.103Z,25.36
2022-09-03T09:30:02.147Z,25.47
2022-09-03T09:32:32.133Z,25.62
2022-09-03T09:35:00.089Z,25.72
2022-09-03T09:37:27.999Z,25.84
2022-09-03T09:39:55.746Z,25.86
2022-09-03T09:42:23.479Z,25.87
2022-09-03T09:44:52.236Z,25.75
2022-09-03T09:47:20.127Z,25.73
2022-09-03T09:49:47.968Z,25.79
2022-09-03T09:52:15.835Z,25.91
2022-09-03T09:54:43.589Z,26.15
2022-09-03T09:57:11.330Z,26.65
2022-09-03T09:59:38.992Z,27.30
2022-09-03T10:02:06.677Z,28.19
2022-09-03T10:04:34.341Z,29.02
2022-09-03T10:07:02.219Z,29.89
2022-09-03T10:09:31.546Z,30.54
2022-09-03T10:12:00.374Z,31.11
2022-09-03T10:14:28.191Z,31.74
2022-09-03T10:16:55.951Z,32.05
2022-09-03T10:19:23.830Z,32.51
2022-09-03T10:21:51.674Z,32.50
2022-09-03T10:24:19.416Z,31.82
2022-09-03T10:26:47.200Z,31.24
2022-09-03T10:29:16.340Z,30.77
2022-09-03T10:31:44.219Z,30.31
2022-09-03T10:34:12.076Z,29.78
2022-09-03T10:36:40.067Z,29.26
2022-09-03T10:39:07.700Z,28.89
2022-09-03T10:41:35.555Z,29.20
2022-09-03T10:44:03.401Z,30.09
2022-09-03T10:46:31.368Z,30.94
2022-09-03T10:48:59.297Z,31.78
2022-09-03T10:51:27.284Z,32.41
2022-09-03T10:53:55.974Z,32.91
2022-09-03T10:56:24.554Z,33.33
2022-09-03T10:58:53.156Z,33.60
2022-09-03T11:01:22.514Z,33.44
2022-09-03T11:03:50.283Z,32.77
2022-09-03T11:06:19.584Z,31.96
2022-09-03T11:08:47.302Z,31.20
2022-09-03T11:11:15.311Z,31.03
2022-09-03T11:13:43.547Z,31.04
2022-09-03T11:16:12.763Z,31.55
2022-09-03T11:18:40.465Z,32.13
2022-09-03T11:21:12.338Z,32.21
2022-09-03T11:23:40.832Z,31.90
2022-09-03T11:26:12.865Z,31.57
2022-09-03T11:28:42.246Z,31.12
2022-09-03T11:31:13.829Z,30.64
2022-09-03T11:33:41.675Z,30.26
2022-09-03T11:36:09.648Z,30.39
2022-09-03T11:38:39.187Z,30.28
2022-09-03T11:41:07.086Z,29.84
2022-09-03T11:43:34.796Z,29.48
2022-09-03T11:46:03.488Z,29.23
2022-09-03T11:48:31.237Z,28.80
2022-09-03T11:50:59.163Z,28.50
2022-09-03T11:53:28.307Z,28.33
2022-09-03T11:55:56.194Z,28.44
2022-09-03T11:58:24.441Z,28.55
2022-09-03T12:00:55.326Z,28.53
2022-09-03T12:03:23.014Z,28.49
2022-09-03T12:05:51.791Z,28.48
2022-09-03T12:08:19.466Z,28.55
2022-09-03T12:10:47.139Z,28.94
2022-09-03T12:13:15.207Z,29.64
2022-09-03T12:15:43.837Z,30.51
2022-09-03T12:18:20.498Z,31.34
2022-09-03T12:20:48.200Z,31.83
2022-09-03T12:23:16.593Z,32.33
2022-09-03T12:25:45.949Z,32.79
2022-09-03T12:28:13.923Z,33.05
2022-09-03T12:30:41.753Z,33.16
2022-09-03T12:33:15.479Z,33.39
2022-09-03T12:35:59.410Z,33.90
2022-09-03T12:38:27.497Z,34.45
2022-09-03T12:43:49.464Z,32.92
2022-09-03T12:46:18.223Z,32.25
2022-09-03T12:48:47.178Z,31.76
2022-09-03T12:54:02.521Z,30.92
2022-09-03T12:56:33.441Z,30.31
2022-09-03T12:59:01.689Z,29.72
2022-09-03T13:01:31.999Z,29.28
2022-09-03T13:04:01.193Z,28.96
2022-09-03T13:06:28.819Z,28.85
2022-09-03T13:08:56.601Z,28.90
2022-09-03T13:11:24.775Z,29.17
2022-09-03T13:13:52.732Z,29.52
2022-09-03T13:16:20.576Z,29.80
2022-09-03T13:18:48.308Z,29.96
2022-09-03T13:21:16.156Z,29.86
2022-09-03T13:23:44.200Z,29.82
2022-09-03T13:26:12.061Z,29.76
2022-09-03T13:28:40.168Z,29.75
2022-09-03T13:31:07.997Z,29.80
2022-09-03T13:33:35.998Z,29.67
2022-09-03T13:36:04.044Z,29.39
2022-09-03T13:38:36.958Z,29.03
2022-09-03T13:41:05.079Z,28.81
2022-09-03T13:43:32.851Z,28.59
2022-09-03T13:46:00.632Z,28.36
2022-09-03T13:48:45.589Z,28.27
2022-09-03T13:51:13.606Z,28.70
2022-09-03T13:53:41.394Z,29.08
2022-09-03T13:56:10.218Z,29.18
2022-09-03T13:58:38.004Z,29.03
2022-09-03T14:01:06.281Z,28.84
2022-09-03T14:03:34.861Z,28.65
2022-09-03T14:06:02.492Z,28.47
2022-09-03T14:08:30.300Z,28.36
2022-09-03T14:10:58.064Z,28.46
2022-09-03T14:13:26.069Z,28.50
2022-09-03T14:15:53.711Z,28.46
2022-09-03T14:18:23.796Z,28.39
2022-09-03T14:20:51.483Z,28.31
2022-09-03T14:23:19.487Z,28.24
2022-09-03T14:25:48.045Z,28.41
2022-09-03T14:28:16.347Z,28.51
2022-09-03T14:30:44.043Z,28.50
2022-09-03T14:33:12.349Z,28.63
2022-09-03T14:35:40.504Z,28.69
2022-09-03T14:38:08.194Z,28.60
2022-09-03T14:40:36.085Z,28.43
2022-09-03T14:43:03.734Z,28.28
2022-09-03T14:45:32.024Z,28.19
2022-09-03T14:47:59.706Z,28.04
2022-09-03T14:50:27.954Z,27.92
2022-09-03T14:52:55.788Z,27.88
2022-09-03T14:55:23.702Z,27.81
2022-09-03T14:57:51.449Z,27.73
2022-09-03T15:00:20.214Z,27.61
2022-09-03T15:02:48.122Z,27.56
2022-09-03T15:05:19.165Z,27.56
2022-09-03T15:07:46.931Z,27.53
2022-09-03T15:10:16.064Z,27.52
2022-09-03T15:12:43.758Z,28.00
2022-09-03T15:15:11.782Z,28.55
2022-09-03T15:17:39.435Z,28.66
2022-09-03T15:20:07.137Z,28.46
2022-09-03T15:22:34.867Z,28.16
2022-09-03T15:25:03.056Z,27.90
2022-09-03T15:27:32.108Z,27.67
2022-09-03T15:29:59.871Z,27.53
2022-09-03T15:32:27.793Z,27.47
2022-09-03T15:34:56.597Z,27.39
2022-09-03T15:37:24.289Z,27.30
2022-09-03T15:39:52.057Z,27.19
2022-09-03T15:42:19.893Z,27.14
2022-09-03T15:44:47.617Z,27.06
2022-09-03T15:47:15.819Z,26.96
2022-09-03T15:49:44.470Z,26.81
2022-09-03T15:52:12.441Z,26.67
2022-09-03T15:54:44.191Z,26.58
2022-09-03T15:57:11.882Z,26.51
2022-09-03T15:59:39.560Z,26.45
2022-09-03T16:02:07.625Z,26.38
2022-09-03T16:04:36.577Z,26.33
2022-09-03T16:07:04.644Z,26.28
2022-09-03T16:09:32.386Z,26.24
2022-09-03T16:12:00.164Z,26.16
2022-09-03T16:14:30.843Z,26.07
2022-09-03T16:16:59.305Z,26.02
2022-09-03T16:19:26.932Z,25.98
2022-09-03T16:21:54.660Z,25.93
2022-09-03T16:24:22.441Z,25.90
2022-09-03T16:26:51.023Z,25.88
2022-09-03T16:29:19.167Z,25.83
2022-09-03T16:31:46.938Z,25.75
2022-09-03T16:34:18.649Z,25.65
2022-09-03T16:36:46.999Z,25.55
2022-09-03T16:39:14.742Z,25.46
2022-09-03T16:41:43.439Z,25.37
2022-09-03T16:44:11.426Z,25.29
2022-09-03T16:46:40.417Z,25.19
2022-09-03T16:49:08.147Z,25.08
2022-09-03T16:51:35.871Z,24.97
2022-09-03T16:54:06.507Z,24.86
2022-09-03T16:56:34.541Z,24.77
2022-09-03T16:59:02.173Z,24.67
2022-09-03T17:01:29.955Z,24.58
2022-09-03T17:03:57.649Z,24.49
2022-09-03T17:06:25.693Z,24.38
2022-09-03T17:08:53.547Z,24.28
2022-09-03T17:11:21.369Z,24.19
2022-09-03T17:13:49.328Z,24.08
2022-09-03T17:16:24.323Z,24.00
2022-09-03T17:18:52.961Z,23.92
2022-09-03T17:21:20.987Z,23.84
2022-09-03T17:23:48.616Z,23.76
2022-09-03T17:26:16.928Z,23.69
2022-09-03T17:28:44.731Z,23.62
2022-09-03T17:31:12.962Z,23.57
2022-09-03T17:33:42.969Z,23.52
2022-09-03T17:36:11.001Z,23.47
2022-09-03T17:38:38.646Z,23.42
2022-09-03T17:41:06.501Z,23.36
2022-09-03T17:43:34.282Z,23.31
2022-09-03T17:46:02.279Z,23.25
2022-09-03T17:48:29.946Z,23.21
2022-09-03T17:50:57.711Z,23.15
2022-09-03T17:53:26.190Z,23.08
2022-09-03T17:55:54.271Z,23.00
2022-09-03T17:58:21.997Z,22.92
2022-09-03T18:00:50.156Z,22.83
2022-09-03T18:03:17.898Z,22.78
2022-09-03T18:05:49.873Z,22.72
2022-09-03T18:08:17.662Z,22.66
2022-09-03T18:10:45.348Z,22.63
2022-09-03T18:13:13.617Z,22.58
2022-09-03T18:15:41.836Z,22.52
2022-09-03T18:18:09.798Z,22.47
2022-09-03T18:21:14.760Z,22.41
2022-09-03T18:24:00.296Z,22.36
2022-09-03T18:26:45.453Z,22.29
2022-09-03T18:29:30.442Z,22.25
2022-09-03T18:32:15.516Z,22.21
2022-09-03T18:35:00.607Z,22.17
2022-09-03T18:37:45.857Z,22.20
2022-09-03T18:40:31.083Z,22.23
2022-09-03T18:43:16.022Z,22.27
2022-09-03T18:46:55.398Z,22.29
2022-09-03T18:49:06.180Z,22.32
2022-09-03T18:51:51.319Z,22.34
2022-09-03T18:54:50.842Z,22.35
2022-09-03T18:57:41.959Z,22.38
2022-09-03T19:00:29.161Z,22.38
2022-09-03T19:03:15.747Z,22.37
2022-09-03T19:06:01.056Z,22.35
2022-09-03T19:08:46.068Z,22.34
2022-09-03T19:11:30.962Z,22.30
2022-09-03T19:14:16.391Z,22.26
2022-09-03T19:17:01.396Z,22.21
2022-09-03T19:19:47.789Z,22.14
2022-09-03T19:22:33.030Z,22.10
2022-09-03T19:25:17.942Z,22.04
2022-09-03T19:28:03.118Z,21.99
2022-09-03T19:30:50.746Z,21.92
2022-09-03T19:33:36.085Z,21.85
2022-09-03T19:36:21.352Z,21.78
2022-09-03T19:39:06.620Z,21.72
2022-09-03T19:41:53.969Z,21.64
2022-09-03T19:44:39.425Z,21.57
2022-09-03T19:47:24.384Z,21.50
2022-09-03T19:50:09.435Z,21.42
2022-09-03T19:52:54.869Z,21.33
2022-09-03T19:55:40.086Z,21.23
2022-09-03T19:58:42.112Z,21.15
2022-09-03T20:01:27.464Z,21.07
2022-09-03T20:04:12.548Z,20.98
2022-09-03T20:06:57.798Z,20.92
2022-09-03T20:09:42.787Z,20.83
2022-09-03T20:12:10.657Z,20.76
2022-09-03T20:14:39.943Z,20.70
2022-09-03T20:17:07.604Z,20.63
2022-09-03T20:19:35.444Z,20.57
2022-09-03T20:22:03.150Z,20.51
2022-09-03T20:24:32.586Z,20.45
2022-09-03T20:27:00.324Z,20.37
2022-09-03T20:29:28.037Z,20.30
2022-09-03T20:31:55.901Z,20.25
2022-09-03T20:34:23.943Z,20.20
2022-09-03T20:36:54.334Z,20.16
2022-09-03T20:39:22.192Z,20.13
2022-09-03T20:41:50.064Z,20.11
2022-09-03T20:44:18.140Z,20.09
2022-09-03T20:46:46.399Z,20.06
2022-09-03T20:49:14.296Z,20.02
2022-09-03T20:51:41.990Z,19.98
2022-09-03T20:54:10.094Z,19.94
2022-09-03T20:56:38.088Z,19.92
2022-09-03T20:59:05.762Z,19.89
2022-09-03T21:01:33.850Z,19.86
2022-09-03T21:04:04.541Z,19.84
2022-09-03T21:06:32.832Z,19.80
2022-09-03T21:09:01.082Z,19.74
2022-09-03T21:11:28.755Z,19.69
2022-09-03T21:13:56.616Z,19.61
2022-09-03T21:16:24.365Z,19.55
2022-09-03T21:18:52.219Z,19.49
2022-09-03T21:21:20.436Z,19.41
2022-09-03T21:23:49.380Z,19.34
2022-09-03T21:26:17.079Z,19.27
2022-09-03T21:28:45.306Z,19.21
2022-09-03T21:31:13.080Z,19.14
2022-09-03T21:33:40.873Z,19.06
2022-09-03T21:36:08.861Z,19.01
2022-09-03T21:38:36.695Z,18.96
2022-09-03T21:41:04.438Z,18.89
2022-09-03T21:43:32.154Z,18.84
2022-09-03T21:46:00.765Z,18.79
2022-09-03T21:48:29.006Z,18.76
2022-09-03T21:50:56.742Z,18.73
2022-09-03T21:53:24.771Z,18.72
2022-09-03T21:55:53.286Z,18.71
2022-09-03T21:58:21.021Z,18.70
2022-09-03T22:00:48.800Z,18.68
2022-09-03T22:03:16.432Z,18.66
2022-09-03T22:05:44.442Z,18.64
2022-09-03T22:08:12.234Z,18.61
2022-09-03T22:10:40.067Z,18.57
2022-09-03T22:13:15.073Z,18.53
2022-09-03T22:15:42.883Z,18.49
2022-09-03T22:18:15.714Z,18.45
2022-09-03T22:20:45.737Z,18.41
2022-09-03T22:23:14.104Z,18.39
2022-09-03T22:25:42.089Z,18.37
2022-09-03T22:28:09.735Z,18.35
2022-09-03T22:30:37.508Z,18.30
2022-09-03T22:33:05.332Z,18.25
2022-09-03T22:35:34.247Z,18.18
2022-09-03T22:38:02.134Z,18.14
2022-09-03T22:40:29.836Z,18.09
2022-09-03T22:42:57.658Z,18.05
2022-09-03T22:45:25.581Z,18.00
2022-09-03T22:47:53.406Z,17.95
2022-09-03T22:50:21.305Z,17.95
2022-09-03T22:52:49.555Z,17.96
2022-09-03T22:55:18.562Z,17.97
2022-09-03T22:57:46.370Z,17.97
2022-09-03T23:00:14.107Z,17.97
2022-09-03T23:02:41.934Z,17.93
2022-09-03T23:05:09.874Z,17.87
2022-09-03T23:07:37.583Z,17.78
2022-09-03T23:10:05.272Z,17.71
2022-09-03T23:12:32.989Z,17.66
2022-09-03T23:15:01.504Z,17.62
2022-09-03T23:19:57.337Z,17.52
2022-09-03T23:22:25.006Z,17.47
2022-09-03T23:24:52.729Z,17.42
2022-09-03T23:27:20.311Z,17.38
2022-09-03T23:29:47.975Z,17.34
2022-09-03T23:32:15.691Z,17.30
2022-09-03T23:34:43.453Z,17.27
2022-09-03T23:37:32.968Z,17.24
2022-09-03T23:40:01.389Z,17.20
2022-09-03T23:42:29.926Z,17.19
2022-09-03T23:44:57.591Z,17.18
2022-09-03T23:47:25.358Z,17.16
2022-09-03T23:49:53.366Z,17.15
2022-09-03T23:52:21.414Z,17.14
2022-09-03T23:54:49.159Z,17.13
2022-09-03T23:57:16.814Z,17.12
2022-09-03T23:59:44.778Z,17.07
